createdAt,value
2019-02-20T00:00:46.388Z,1017.54
2019-02-20T00:01:56.067Z,1017.54
2019-02-20T00:03:05.271Z,1017.54
2019-02-20T00:04:14.997Z,1017.56
2019-02-20T00:05:24.424Z,1017.55
2019-02-20T00:06:34.385Z,1017.53
2019-02-20T00:07:43.853Z,1017.59
2019-02-20T00:08:53.319Z,1017.54
2019-02-20T00:10:02.989Z,1017.57
2019-02-20T00:11:12.180Z,1017.52
2019-02-20T00:12:21.856Z,1017.56
2019-02-20T00:13:31.028Z,1017.54
2019-02-20T00:14:39.950Z,1017.52
2019-02-20T00:15:49.411Z,1017.51
2019-02-20T00:16:58.841Z,1017.51
2019-02-20T00:18:08.254Z,1017.52
2019-02-20T00:19:17.184Z,1017.54
2019-02-20T00:20:27.411Z,1017.53
2019-02-20T00:21:36.847Z,1017.54
2019-02-20T00:22:46.040Z,1017.56
2019-02-20T00:23:55.513Z,1017.54
2019-02-20T00:25:04.944Z,1017.55
2019-02-20T00:26:14.121Z,1017.55
2019-02-20T00:27:23.074Z,1017.54
2019-02-20T00:28:32.767Z,1017.52
2019-02-20T00:29:41.948Z,1017.55
2019-02-20T00:30:51.368Z,1017.54
2019-02-20T00:32:00.805Z,1017.55
2019-02-20T00:33:09.991Z,1017.52
2019-02-20T00:34:19.946Z,1017.57
2019-02-20T00:35:29.376Z,1017.56
2019-02-20T00:36:39.356Z,1017.59
2019-02-20T00:37:48.541Z,1017.6
2019-02-20T00:38:57.983Z,1017.54
2019-02-20T00:40:07.413Z,1017.51
2019-02-20T00:41:16.617Z,1017.49
2019-02-20T00:42:25.552Z,1017.52
2019-02-20T00:43:34.730Z,1017.54
2019-02-20T00:44:43.658Z,1017.48
2019-02-20T00:45:52.830Z,1017.5
2019-02-20T00:47:03.714Z,1017.5
2019-02-20T00:48:12.673Z,1017.52
2019-02-20T00:49:22.170Z,1017.53
2019-02-20T00:50:31.612Z,1017.52
2019-02-20T00:51:41.055Z,1017.53
2019-02-20T00:52:50.649Z,1017.5
2019-02-20T00:54:00.628Z,1017.56
2019-02-20T00:55:12.035Z,1017.59
2019-02-20T00:56:21.204Z,1017.61
2019-02-20T00:57:30.930Z,1017.58
2019-02-20T00:58:39.899Z,1017.58
2019-02-20T00:59:49.574Z,1017.61
2019-02-20T01:00:58.775Z,1017.59
2019-02-20T01:02:08.268Z,1017.6
2019-02-20T01:03:17.459Z,1017.61
2019-02-20T01:04:27.403Z,1017.62
2019-02-20T01:05:37.141Z,1017.62
2019-02-20T01:06:46.360Z,1017.61
2019-02-20T01:07:55.283Z,1017.6
2019-02-20T01:09:04.961Z,1017.64
2019-02-20T01:10:14.447Z,1017.62
2019-02-20T01:11:23.639Z,1017.65
2019-02-20T01:12:33.094Z,1017.58
2019-02-20T01:13:42.578Z,1017.62
2019-02-20T01:14:52.039Z,1017.6
2019-02-20T01:16:01.209Z,1017.65
2019-02-20T01:17:11.183Z,1017.65
2019-02-20T01:18:20.425Z,1017.66
2019-02-20T01:19:30.359Z,1017.6
2019-02-20T01:20:39.829Z,1017.61
2019-02-20T01:21:49.309Z,1017.58
2019-02-20T01:22:59.948Z,1017.58
2019-02-20T01:24:09.481Z,1017.55
2019-02-20T01:25:18.907Z,1017.52
2019-02-20T01:26:28.092Z,1017.51
2019-02-20T01:27:37.786Z,1017.47
2019-02-20T01:28:47.236Z,1017.51
2019-02-20T01:29:56.688Z,1017.51
2019-02-20T01:31:06.582Z,1017.53
2019-02-20T01:32:15.505Z,1017.53
2019-02-20T01:33:24.698Z,1017.53
2019-02-20T01:34:34.640Z,1017.53
2019-02-20T01:35:43.581Z,1017.5
2019-02-20T01:36:53.034Z,1017.48
2019-02-20T01:38:02.760Z,1017.5
2019-02-20T01:39:12.453Z,1017.52
2019-02-20T01:40:21.652Z,1017.44
2019-02-20T01:41:31.137Z,1017.44
2019-02-20T01:42:40.088Z,1017.46
2019-02-20T01:43:49.013Z,1017.4
2019-02-20T01:44:58.219Z,1017.42
2019-02-20T01:46:07.164Z,1017.42
2019-02-20T01:47:16.369Z,1017.4
2019-02-20T01:48:26.062Z,1017.39
2019-02-20T01:49:35.533Z,1017.39
2019-02-20T01:50:45.203Z,1017.36
2019-02-20T01:51:54.628Z,1017.41
2019-02-20T01:53:10.169Z,1017.4
2019-02-20T01:54:20.251Z,1017.4
2019-02-20T01:55:29.935Z,1017.4
2019-02-20T01:56:39.127Z,1017.42
2019-02-20T01:57:48.370Z,1017.41
2019-02-20T01:58:57.793Z,1017.39
2019-02-20T02:00:07.031Z,1017.42
2019-02-20T02:01:16.749Z,1017.37
2019-02-20T02:02:26.209Z,1017.39
2019-02-20T02:03:35.388Z,1017.42
2019-02-20T02:04:46.835Z,1017.38
2019-02-20T02:05:56.265Z,1017.39
2019-02-20T02:07:05.948Z,1017.39
2019-02-20T02:08:15.705Z,1017.42
2019-02-20T02:09:25.416Z,1017.42
2019-02-20T02:10:34.868Z,1017.41
2019-02-20T02:11:44.318Z,1017.39
2019-02-20T02:12:53.773Z,1017.35
2019-02-20T02:14:03.203Z,1017.37
2019-02-20T02:15:19.916Z,1017.36
2019-02-20T02:16:29.515Z,1017.41
2019-02-20T02:17:38.960Z,1017.36
2019-02-20T02:18:48.667Z,1017.34
2019-02-20T02:19:58.140Z,1017.33
2019-02-20T02:21:07.337Z,1017.34
2019-02-20T02:22:17.016Z,1017.29
2019-02-20T02:23:26.698Z,1017.3
2019-02-20T02:24:36.386Z,1017.31
2019-02-20T02:25:45.827Z,1017.32
2019-02-20T02:26:55.057Z,1017.33
2019-02-20T02:28:04.016Z,1017.36
2019-02-20T02:29:13.239Z,1017.38
2019-02-20T02:30:22.424Z,1017.38
2019-02-20T02:31:32.166Z,1017.36
2019-02-20T02:32:41.628Z,1017.34
2019-02-20T02:33:50.563Z,1017.34
2019-02-20T02:35:00.511Z,1017.3
2019-02-20T02:36:10.218Z,1017.31
2019-02-20T02:37:19.481Z,1017.33
2019-02-20T02:38:28.915Z,1017.28
2019-02-20T02:39:38.856Z,1017.32
2019-02-20T02:40:48.420Z,1017.3
2019-02-20T02:41:58.172Z,1017.28
2019-02-20T02:43:07.903Z,1017.29
2019-02-20T02:44:16.899Z,1017.27
2019-02-20T02:45:26.328Z,1017.29
2019-02-20T02:46:35.538Z,1017.26
2019-02-20T02:47:44.976Z,1017.25
2019-02-20T02:48:54.704Z,1017.27
2019-02-20T02:50:03.898Z,1017.28
2019-02-20T02:51:13.411Z,1017.24
2019-02-20T02:52:23.332Z,1017.27
2019-02-20T02:53:32.511Z,1017.3
2019-02-20T02:54:41.941Z,1017.3
2019-02-20T02:55:51.396Z,1017.28
2019-02-20T02:57:01.076Z,1017.34
2019-02-20T02:58:10.523Z,1017.34
2019-02-20T02:59:20.241Z,1017.34
2019-02-20T03:00:29.752Z,1017.31
2019-02-20T03:01:39.200Z,1017.29
2019-02-20T03:02:48.389Z,1017.3
2019-02-20T03:03:57.614Z,1017.28
2019-02-20T03:05:07.055Z,1017.25
2019-02-20T03:06:16.481Z,1017.27
2019-02-20T03:07:25.907Z,1017.2
2019-02-20T03:08:35.608Z,1017.23
2019-02-20T03:09:44.788Z,1017.25
2019-02-20T03:10:54.475Z,1017.25
2019-02-20T03:12:04.480Z,1017.28
2019-02-20T03:13:14.312Z,1017.31
2019-02-20T03:14:23.563Z,1017.32
2019-02-20T03:15:33.090Z,1017.33
2019-02-20T03:16:43.043Z,1017.32
2019-02-20T03:17:52.500Z,1017.34
2019-02-20T03:19:02.203Z,1017.34
2019-02-20T03:20:11.666Z,1017.37
2019-02-20T03:21:20.847Z,1017.38
2019-02-20T03:22:30.100Z,1017.39
2019-02-20T03:23:40.297Z,1017.39
2019-02-20T03:24:50.040Z,1017.4
2019-02-20T03:25:59.239Z,1017.4
2019-02-20T03:27:08.423Z,1017.4
2019-02-20T03:28:18.139Z,1017.37
2019-02-20T03:29:27.580Z,1017.42
2019-02-20T03:30:37.038Z,1017.44
2019-02-20T03:31:46.558Z,1017.4
2019-02-20T03:32:56.290Z,1017.45
2019-02-20T03:34:08.669Z,1017.45
2019-02-20T03:35:18.332Z,1017.43
2019-02-20T03:36:28.029Z,1017.43
2019-02-20T03:37:37.994Z,1017.44
2019-02-20T03:38:48.002Z,1017.44
2019-02-20T03:39:57.215Z,1017.45
2019-02-20T03:41:06.947Z,1017.45
2019-02-20T03:42:16.674Z,1017.46
2019-02-20T03:43:26.366Z,1017.49
2019-02-20T03:44:36.050Z,1017.49
2019-02-20T03:45:45.524Z,1017.49
2019-02-20T03:46:54.947Z,1017.51
2019-02-20T03:48:04.409Z,1017.51
2019-02-20T03:49:13.380Z,1017.48
2019-02-20T03:50:22.824Z,1017.5
2019-02-20T03:51:32.268Z,1017.52
2019-02-20T03:52:41.470Z,1017.5
2019-02-20T03:53:52.060Z,1017.48
2019-02-20T03:55:02.023Z,1017.5
2019-02-20T03:56:11.720Z,1017.5
2019-02-20T03:57:21.169Z,1017.49
2019-02-20T03:58:30.861Z,1017.46
2019-02-20T03:59:40.747Z,1017.43
2019-02-20T04:00:50.457Z,1017.44
2019-02-20T04:01:59.655Z,1017.43
2019-02-20T04:03:09.126Z,1017.46
2019-02-20T04:04:18.325Z,1017.42
2019-02-20T04:05:27.761Z,1017.4
2019-02-20T04:06:36.705Z,1017.43
2019-02-20T04:07:46.618Z,1017.44
2019-02-20T04:08:56.305Z,1017.43
2019-02-20T04:10:05.756Z,1017.45
2019-02-20T04:11:16.826Z,1017.47
2019-02-20T04:12:26.271Z,1017.47
2019-02-20T04:13:35.505Z,1017.45
2019-02-20T04:14:44.980Z,1017.49
2019-02-20T04:15:54.433Z,1017.5
2019-02-20T04:17:03.886Z,1017.52
2019-02-20T04:18:13.083Z,1017.52
2019-02-20T04:19:22.535Z,1017.5
2019-02-20T04:20:32.498Z,1017.52
2019-02-20T04:21:42.180Z,1017.51
2019-02-20T04:22:51.645Z,1017.51
2019-02-20T04:24:02.675Z,1017.53
2019-02-20T04:25:12.513Z,1017.54
2019-02-20T04:26:22.206Z,1017.54
2019-02-20T04:27:31.401Z,1017.53
2019-02-20T04:28:41.096Z,1017.56
2019-02-20T04:29:50.769Z,1017.54
2019-02-20T04:31:00.021Z,1017.5
2019-02-20T04:32:09.732Z,1017.53
2019-02-20T04:33:19.420Z,1017.52
2019-02-20T04:34:29.126Z,1017.52
2019-02-20T04:35:38.582Z,1017.5
2019-02-20T04:36:48.279Z,1017.52
2019-02-20T04:37:57.472Z,1017.54
2019-02-20T04:39:07.443Z,1017.54
2019-02-20T04:40:16.632Z,1017.51
2019-02-20T04:41:25.839Z,1017.53
2019-02-20T04:42:35.783Z,1017.54
2019-02-20T04:43:45.464Z,1017.56
2019-02-20T04:44:54.663Z,1017.55
2019-02-20T04:46:03.868Z,1017.52
2019-02-20T04:47:13.822Z,1017.5
2019-02-20T04:48:23.034Z,1017.48
2019-02-20T04:49:32.500Z,1017.51
2019-02-20T04:50:41.966Z,1017.52
2019-02-20T04:51:51.565Z,1017.52
2019-02-20T04:53:01.273Z,1017.57
2019-02-20T04:54:13.135Z,1017.54
2019-02-20T04:55:23.046Z,1017.54
2019-02-20T04:56:32.512Z,1017.55
2019-02-20T04:57:42.215Z,1017.51
2019-02-20T04:58:51.918Z,1017.48
2019-02-20T05:00:01.350Z,1017.48
2019-02-20T05:01:11.316Z,1017.46
2019-02-20T05:02:21.051Z,1017.47
2019-02-20T05:03:30.992Z,1017.46
2019-02-20T05:04:40.432Z,1017.47
2019-02-20T05:05:50.126Z,1017.47
2019-02-20T05:06:59.833Z,1017.48
2019-02-20T05:08:09.580Z,1017.48
2019-02-20T05:09:19.275Z,1017.51
2019-02-20T05:10:28.718Z,1017.53
2019-02-20T05:11:38.230Z,1017.55
2019-02-20T05:12:47.691Z,1017.51
2019-02-20T05:13:57.430Z,1017.55
2019-02-20T05:15:07.383Z,1017.53
2019-02-20T05:16:17.098Z,1017.56
2019-02-20T05:17:26.563Z,1017.54
2019-02-20T05:18:36.321Z,1017.55
2019-02-20T05:19:45.277Z,1017.52
2019-02-20T05:20:55.033Z,1017.54
2019-02-20T05:22:04.226Z,1017.53
2019-02-20T05:23:13.708Z,1017.55
2019-02-20T05:24:24.921Z,1017.58
2019-02-20T05:25:35.176Z,1017.58
2019-02-20T05:26:44.387Z,1017.58
2019-02-20T05:27:53.599Z,1017.57
2019-02-20T05:29:03.055Z,1017.51
2019-02-20T05:30:12.759Z,1017.53
2019-02-20T05:31:22.457Z,1017.55
2019-02-20T05:32:32.154Z,1017.53
2019-02-20T05:33:41.342Z,1017.51
2019-02-20T05:34:51.039Z,1017.49
2019-02-20T05:36:00.973Z,1017.48
2019-02-20T05:37:10.670Z,1017.5
2019-02-20T05:38:19.873Z,1017.48
2019-02-20T05:39:29.581Z,1017.46
2019-02-20T05:40:39.531Z,1017.45
2019-02-20T05:41:48.950Z,1017.46
2019-02-20T05:42:58.386Z,1017.46
2019-02-20T05:44:07.839Z,1017.42
2019-02-20T05:45:17.539Z,1017.45
2019-02-20T05:46:27.295Z,1017.48
2019-02-20T05:47:36.732Z,1017.47
2019-02-20T05:48:46.423Z,1017.46
2019-02-20T05:49:58.137Z,1017.47
2019-02-20T05:51:07.859Z,1017.46
2019-02-20T05:52:17.333Z,1017.46
2019-02-20T05:53:26.794Z,1017.44
2019-02-20T05:54:36.470Z,1017.48
2019-02-20T05:55:46.172Z,1017.47
2019-02-20T05:56:55.356Z,1017.51
2019-02-20T05:58:04.869Z,1017.56
2019-02-20T05:59:14.322Z,1017.55
2019-02-20T06:00:23.804Z,1017.6
2019-02-20T06:01:33.531Z,1017.6
2019-02-20T06:02:43.243Z,1017.59
2019-02-20T06:03:52.707Z,1017.59
2019-02-20T06:05:02.385Z,1017.57
2019-02-20T06:06:12.102Z,1017.52
2019-02-20T06:07:21.792Z,1017.53
2019-02-20T06:08:31.490Z,1017.59
2019-02-20T06:09:41.424Z,1017.6
2019-02-20T06:10:51.100Z,1017.61
2019-02-20T06:12:00.583Z,1017.64
2019-02-20T06:13:10.019Z,1017.64
2019-02-20T06:14:19.463Z,1017.65
2019-02-20T06:15:29.169Z,1017.64
2019-02-20T06:16:38.641Z,1017.63
2019-02-20T06:17:48.782Z,1017.67
2019-02-20T06:18:58.762Z,1017.69
2019-02-20T06:20:08.188Z,1017.7
2019-02-20T06:21:17.615Z,1017.68
2019-02-20T06:22:27.320Z,1017.68
2019-02-20T06:23:37.248Z,1017.7
2019-02-20T06:24:46.443Z,1017.68
2019-02-20T06:25:55.616Z,1017.69
2019-02-20T06:27:04.891Z,1017.71
2019-02-20T06:28:15.579Z,1017.72
2019-02-20T06:29:25.046Z,1017.76
2019-02-20T06:30:34.736Z,1017.75
2019-02-20T06:31:44.426Z,1017.79
2019-02-20T06:32:54.365Z,1017.82
2019-02-20T06:34:04.072Z,1017.81
2019-02-20T06:35:13.502Z,1017.81
2019-02-20T06:36:22.699Z,1017.79
2019-02-20T06:37:32.372Z,1017.82
2019-02-20T06:38:41.585Z,1017.8
2019-02-20T06:39:50.775Z,1017.79
2019-02-20T06:41:00.019Z,1017.81
2019-02-20T06:42:10.080Z,1017.83
2019-02-20T06:43:19.564Z,1017.81
2019-02-20T06:44:29.261Z,1017.82
2019-02-20T06:45:38.731Z,1017.85
2019-02-20T06:46:47.929Z,1017.84
2019-02-20T06:47:57.691Z,1017.87
2019-02-20T06:49:07.400Z,1017.91
2019-02-20T06:50:16.858Z,1017.9
2019-02-20T06:51:26.631Z,1017.99
2019-02-20T06:52:36.311Z,1017.96
2019-02-20T06:53:45.564Z,1017.97
2019-02-20T06:54:54.416Z,1018.04
2019-02-20T06:56:03.971Z,1018.04
2019-02-20T06:57:13.443Z,1018.02
2019-02-20T06:58:22.658Z,1018.04
2019-02-20T06:59:32.095Z,1018.05
2019-02-20T07:00:41.540Z,1018.07
2019-02-20T07:01:50.514Z,1018.09
2019-02-20T07:03:00.204Z,1018.14
2019-02-20T07:04:09.658Z,1018.13
2019-02-20T07:05:19.109Z,1018.13
2019-02-20T07:06:28.553Z,1018.15
2019-02-20T07:07:37.486Z,1018.17
2019-02-20T07:08:46.719Z,1018.21
2019-02-20T07:09:56.404Z,1018.21
2019-02-20T07:11:05.893Z,1018.18
2019-02-20T07:12:15.610Z,1018.19
2019-02-20T07:13:25.063Z,1018.21
2019-02-20T07:14:34.509Z,1018.21
2019-02-20T07:15:43.957Z,1018.22
2019-02-20T07:16:53.158Z,1018.24
2019-02-20T07:18:02.342Z,1018.2
2019-02-20T07:19:12.148Z,1018.22
2019-02-20T07:20:21.354Z,1018.22
2019-02-20T07:21:30.833Z,1018.26
2019-02-20T07:22:40.783Z,1018.25
2019-02-20T07:23:50.727Z,1018.21
2019-02-20T07:25:02.948Z,1018.26
2019-02-20T07:26:13.029Z,1018.3
2019-02-20T07:27:22.506Z,1018.31
2019-02-20T07:28:32.230Z,1018.33
2019-02-20T07:29:41.180Z,1018.32
2019-02-20T07:30:50.661Z,1018.34
2019-02-20T07:32:00.143Z,1018.32
2019-02-20T07:33:09.377Z,1018.33
2019-02-20T07:34:19.098Z,1018.35
2019-02-20T07:35:28.233Z,1018.31
2019-02-20T07:36:37.962Z,1018.31
2019-02-20T07:37:47.180Z,1018.3
2019-02-20T07:38:56.381Z,1018.31
2019-02-20T07:40:05.343Z,1018.27
2019-02-20T07:41:14.824Z,1018.29
2019-02-20T07:42:24.778Z,1018.3
2019-02-20T07:43:34.211Z,1018.36
2019-02-20T07:44:43.422Z,1018.36
2019-02-20T07:45:52.873Z,1018.45
2019-02-20T07:47:02.318Z,1018.41
2019-02-20T07:48:11.260Z,1018.39
2019-02-20T07:49:20.687Z,1018.43
2019-02-20T07:50:29.640Z,1018.43
2019-02-20T07:51:39.343Z,1018.47
2019-02-20T07:52:49.051Z,1018.46
2019-02-20T07:53:58.484Z,1018.49
2019-02-20T07:55:13.112Z,1018.5
2019-02-20T07:56:24.101Z,1018.51
2019-02-20T07:57:33.914Z,1018.53
2019-02-20T07:58:43.633Z,1018.5
2019-02-20T07:59:53.581Z,1018.51
2019-02-20T08:01:03.272Z,1018.54
2019-02-20T08:02:12.959Z,1018.51
2019-02-20T08:03:22.145Z,1018.53
2019-02-20T08:04:32.646Z,1018.55
2019-02-20T08:05:42.090Z,1018.59
2019-02-20T08:06:52.081Z,1018.6
2019-02-20T08:08:01.528Z,1018.63
2019-02-20T08:09:11.205Z,1018.64
2019-02-20T08:10:20.408Z,1018.65
2019-02-20T08:11:29.839Z,1018.66
2019-02-20T08:12:39.288Z,1018.7
2019-02-20T08:13:48.732Z,1018.73
2019-02-20T08:14:58.418Z,1018.72
2019-02-20T08:16:08.130Z,1018.75
2019-02-20T08:17:17.836Z,1018.74
2019-02-20T08:18:27.290Z,1018.73
2019-02-20T08:19:36.483Z,1018.78
2019-02-20T08:20:46.421Z,1018.79
2019-02-20T08:21:56.104Z,1018.83
2019-02-20T08:23:05.330Z,1018.83
2019-02-20T08:24:15.023Z,1018.85
2019-02-20T08:25:24.491Z,1018.89
2019-02-20T08:26:33.181Z,1018.89
2019-02-20T08:27:42.390Z,1018.87
2019-02-20T08:28:52.099Z,1018.88
2019-02-20T08:30:01.795Z,1018.88
2019-02-20T08:31:11.223Z,1018.87
2019-02-20T08:32:20.670Z,1018.87
2019-02-20T08:33:30.365Z,1018.88
2019-02-20T08:34:39.595Z,1018.91
2019-02-20T08:35:49.049Z,1018.87
2019-02-20T08:36:58.488Z,1018.86
2019-02-20T08:38:08.241Z,1018.88
2019-02-20T08:39:17.704Z,1018.83
2019-02-20T08:40:26.905Z,1018.88
2019-02-20T08:41:36.591Z,1018.88
2019-02-20T08:42:45.776Z,1018.88
2019-02-20T08:43:54.978Z,1018.87
2019-02-20T08:45:04.691Z,1018.92
2019-02-20T08:46:13.382Z,1018.91
2019-02-20T08:47:22.357Z,1018.94
2019-02-20T08:48:31.545Z,1018.91
2019-02-20T08:49:40.555Z,1018.89
2019-02-20T08:50:49.785Z,1018.91
2019-02-20T08:51:59.254Z,1018.93
2019-02-20T08:53:08.993Z,1018.92
2019-02-20T08:54:17.692Z,1018.89
2019-02-20T08:55:31.890Z,1018.93
2019-02-20T08:56:42.296Z,1018.91
2019-02-20T08:57:52.070Z,1018.95
2019-02-20T08:59:01.531Z,1018.95
2019-02-20T09:00:11.243Z,1018.98
2019-02-20T09:01:21.552Z,1018.98
2019-02-20T09:02:30.765Z,1018.99
2019-02-20T09:03:40.215Z,1019
2019-02-20T09:04:49.655Z,1018.97
2019-02-20T09:05:59.844Z,1019.01
2019-02-20T09:07:09.580Z,1019.01
2019-02-20T09:08:19.027Z,1018.99
2019-02-20T09:09:28.511Z,1018.97
2019-02-20T09:10:37.458Z,1019
2019-02-20T09:11:47.322Z,1019
2019-02-20T09:12:56.751Z,1019.01
2019-02-20T09:14:06.496Z,1018.97
2019-02-20T09:15:16.177Z,1018.96
2019-02-20T09:16:25.628Z,1018.93
2019-02-20T09:17:35.365Z,1018.97
2019-02-20T09:18:44.547Z,1018.96
2019-02-20T09:19:53.980Z,1018.95
2019-02-20T09:21:03.674Z,1018.95
2019-02-20T09:22:13.385Z,1018.95
2019-02-20T09:23:22.586Z,1018.99
2019-02-20T09:24:32.261Z,1019
2019-02-20T09:25:42.030Z,1019.01
2019-02-20T09:27:03.976Z,1019.02
2019-02-20T09:28:13.440Z,1019.04
2019-02-20T09:29:22.910Z,1019.04
2019-02-20T09:30:32.357Z,1019.03
2019-02-20T09:31:41.574Z,1019.06
2019-02-20T09:32:51.055Z,1019.1
2019-02-20T09:34:00.498Z,1019.07
2019-02-20T09:35:09.943Z,1019.08
2019-02-20T09:36:19.419Z,1019.06
2019-02-20T09:37:28.866Z,1019.07
2019-02-20T09:38:38.579Z,1019.11
2019-02-20T09:39:48.253Z,1019.07
2019-02-20T09:40:57.704Z,1019.09
2019-02-20T09:42:07.409Z,1019.05
2019-02-20T09:43:16.598Z,1019.05
2019-02-20T09:44:26.047Z,1019.1
2019-02-20T09:45:41.824Z,1019.06
2019-02-20T09:46:51.477Z,1019.07
2019-02-20T09:48:01.475Z,1019.02
2019-02-20T09:49:11.171Z,1019.07
2019-02-20T09:50:20.901Z,1019.08
2019-02-20T09:51:30.098Z,1019.06
2019-02-20T09:52:39.537Z,1019.08
2019-02-20T09:53:56.941Z,1019.09
2019-02-20T09:55:06.428Z,1019.1
2019-02-20T09:56:16.227Z,1019.11
2019-02-20T09:57:25.500Z,1019.12
2019-02-20T09:58:35.007Z,1019.14
2019-02-20T09:59:43.972Z,1019.18
2019-02-20T10:00:53.989Z,1019.15
2019-02-20T10:02:05.288Z,1019.19
2019-02-20T10:03:14.533Z,1019.14
2019-02-20T10:04:23.738Z,1019.22
2019-02-20T10:05:32.941Z,1019.2
2019-02-20T10:06:44.580Z,1019.23
2019-02-20T10:07:54.189Z,1019.23
2019-02-20T10:09:05.036Z,1019.2
2019-02-20T10:10:16.715Z,1019.22
2019-02-20T10:11:26.431Z,1019.23
2019-02-20T10:12:36.130Z,1019.19
2019-02-20T10:13:44.836Z,1019.19
2019-02-20T10:14:53.888Z,1019.23
2019-02-20T10:16:03.628Z,1019.23
2019-02-20T10:17:12.830Z,1019.18
2019-02-20T10:18:22.526Z,1019.2
2019-02-20T10:19:31.724Z,1019.24
2019-02-20T10:20:40.947Z,1019.22
2019-02-20T10:21:50.667Z,1019.19
2019-02-20T10:23:00.113Z,1019.2
2019-02-20T10:24:09.095Z,1019.2
2019-02-20T10:25:18.569Z,1019.17
2019-02-20T10:26:28.256Z,1019.2
2019-02-20T10:27:38.403Z,1019.26
2019-02-20T10:28:47.849Z,1019.24
2019-02-20T10:29:59.311Z,1019.24
2019-02-20T10:31:08.774Z,1019.22
2019-02-20T10:32:18.237Z,1019.24
2019-02-20T10:33:28.175Z,1019.26
2019-02-20T10:34:37.873Z,1019.27
2019-02-20T10:35:47.360Z,1019.28
2019-02-20T10:36:56.797Z,1019.27
2019-02-20T10:38:06.410Z,1019.28
2019-02-20T10:39:15.345Z,1019.27
2019-02-20T10:40:25.275Z,1019.31
2019-02-20T10:41:34.465Z,1019.25
2019-02-20T10:42:43.422Z,1019.25
2019-02-20T10:43:52.671Z,1019.22
2019-02-20T10:45:02.679Z,1019.24
2019-02-20T10:46:12.639Z,1019.24
2019-02-20T10:47:22.138Z,1019.27
2019-02-20T10:48:31.409Z,1019.26
2019-02-20T10:49:40.884Z,1019.26
2019-02-20T10:50:49.862Z,1019.34
2019-02-20T10:51:59.313Z,1019.32
2019-02-20T10:53:08.759Z,1019.32
2019-02-20T10:54:18.247Z,1019.27
2019-02-20T10:55:27.222Z,1019.28
2019-02-20T10:56:36.924Z,1019.26
2019-02-20T10:57:46.919Z,1019.26
2019-02-20T10:58:56.428Z,1019.22
2019-02-20T11:00:05.888Z,1019.2
2019-02-20T11:01:26.263Z,1019.21
2019-02-20T11:02:35.804Z,1019.22
2019-02-20T11:03:45.259Z,1019.22
2019-02-20T11:04:54.237Z,1019.18
2019-02-20T11:06:03.977Z,1019.19
2019-02-20T11:07:13.205Z,1019.22
2019-02-20T11:08:23.152Z,1019.21
2019-02-20T11:09:33.095Z,1019.17
2019-02-20T11:10:42.054Z,1019.16
2019-02-20T11:11:51.246Z,1019.14
2019-02-20T11:13:01.884Z,1019.16
2019-02-20T11:14:11.402Z,1019.16
2019-02-20T11:15:20.636Z,1019.15
2019-02-20T11:16:30.079Z,1019.17
2019-02-20T11:17:40.466Z,1019.2
2019-02-20T11:18:49.661Z,1019.17
2019-02-20T11:19:59.084Z,1019.15
2019-02-20T11:21:08.839Z,1019.18
2019-02-20T11:22:18.315Z,1019.17
2019-02-20T11:23:28.048Z,1019.2
2019-02-20T11:24:37.739Z,1019.22
2019-02-20T11:25:47.450Z,1019.23
2019-02-20T11:26:57.152Z,1019.26
2019-02-20T11:28:06.391Z,1019.25
2019-02-20T11:29:15.848Z,1019.25
2019-02-20T11:30:25.559Z,1019.22
2019-02-20T11:31:34.996Z,1019.2
2019-02-20T11:32:43.980Z,1019.24
2019-02-20T11:33:53.683Z,1019.25
2019-02-20T11:35:04.679Z,1019.21
2019-02-20T11:36:13.623Z,1019.21
2019-02-20T11:37:23.088Z,1019.17
2019-02-20T11:38:32.521Z,1019.16
2019-02-20T11:39:41.941Z,1019.18
2019-02-20T11:40:51.125Z,1019.16
2019-02-20T11:42:00.581Z,1019.19
2019-02-20T11:43:10.334Z,1019.19
2019-02-20T11:44:21.123Z,1019.21
2019-02-20T11:45:30.497Z,1019.23
2019-02-20T11:46:40.171Z,1019.22
2019-02-20T11:47:51.489Z,1019.26
2019-02-20T11:49:01.444Z,1019.25
2019-02-20T11:50:11.120Z,1019.25
2019-02-20T11:51:20.342Z,1019.25
2019-02-20T11:52:36.412Z,1019.23
2019-02-20T11:53:47.566Z,1019.24
2019-02-20T11:54:57.229Z,1019.2
2019-02-20T11:56:08.341Z,1019.24
2019-02-20T11:57:26.766Z,1019.24
2019-02-20T11:58:36.460Z,1019.26
2019-02-20T11:59:46.393Z,1019.23
2019-02-20T12:00:55.859Z,1019.22
2019-02-20T12:02:05.325Z,1019.23
2019-02-20T12:03:14.524Z,1019.22
2019-02-20T12:04:24.236Z,1019.19
2019-02-20T12:05:33.705Z,1019.16
2019-02-20T12:06:43.832Z,1019.17
2019-02-20T12:07:52.760Z,1019.16
2019-02-20T12:09:01.928Z,1019.1
2019-02-20T12:10:12.756Z,1019.1
2019-02-20T12:11:22.608Z,1019.07
2019-02-20T12:12:32.046Z,1019.09
2019-02-20T12:13:41.488Z,1019.07
2019-02-20T12:14:51.235Z,1019.08
2019-02-20T12:16:00.444Z,1019.04
2019-02-20T12:17:10.150Z,1019
2019-02-20T12:18:19.840Z,1018.99
2019-02-20T12:19:28.782Z,1019
2019-02-20T12:20:39.805Z,1018.99
2019-02-20T12:21:49.003Z,1019.02
2019-02-20T12:22:58.226Z,1018.98
2019-02-20T12:24:07.437Z,1019
2019-02-20T12:25:17.138Z,1018.99
2019-02-20T12:26:34.794Z,1019.01
2019-02-20T12:27:45.285Z,1018.99
2019-02-20T12:28:54.235Z,1018.99
2019-02-20T12:30:03.704Z,1018.97
2019-02-20T12:31:13.148Z,1018.94
2019-02-20T12:32:22.334Z,1018.93
2019-02-20T12:33:33.500Z,1018.99
2019-02-20T12:34:42.945Z,1018.98
2019-02-20T12:35:53.625Z,1018.99
2019-02-20T12:37:02.812Z,1018.93
2019-02-20T12:38:11.995Z,1018.95
2019-02-20T12:39:21.416Z,1018.99
2019-02-20T12:40:32.485Z,1018.98
2019-02-20T12:41:41.422Z,1018.96
2019-02-20T12:42:51.090Z,1019.02
2019-02-20T12:44:01.032Z,1018.98
2019-02-20T12:45:10.721Z,1019.01
2019-02-20T12:46:20.155Z,1019.02
2019-02-20T12:47:29.340Z,1018.98
2019-02-20T12:48:39.094Z,1019.04
2019-02-20T12:49:48.611Z,1019.01
2019-02-20T12:50:58.632Z,1018.97
2019-02-20T12:52:08.067Z,1019
2019-02-20T12:53:17.527Z,1018.97
2019-02-20T12:54:26.961Z,1018.99
2019-02-20T12:55:36.152Z,1019.04
2019-02-20T12:56:45.601Z,1018.99
2019-02-20T12:57:54.568Z,1019.07
2019-02-20T12:59:07.720Z,1019.05
2019-02-20T13:00:17.453Z,1019.05
2019-02-20T13:01:27.384Z,1019.05
2019-02-20T13:02:37.059Z,1019.06
2019-02-20T13:03:46.510Z,1019.05
2019-02-20T13:04:55.758Z,1019.04
2019-02-20T13:06:05.219Z,1019.05
2019-02-20T13:07:14.672Z,1019.04
2019-02-20T13:08:25.421Z,1019.03
2019-02-20T13:09:35.416Z,1019.03
2019-02-20T13:10:45.094Z,1019.05
2019-02-20T13:11:57.071Z,1019.04
2019-02-20T13:13:06.899Z,1019.04
2019-02-20T13:14:16.347Z,1019.04
2019-02-20T13:15:27.267Z,1019.02
2019-02-20T13:16:37.100Z,1019
2019-02-20T13:17:46.565Z,1018.96
2019-02-20T13:18:56.276Z,1018.96
2019-02-20T13:20:05.714Z,1018.97
2019-02-20T13:21:14.910Z,1018.93
2019-02-20T13:22:24.679Z,1018.86
2019-02-20T13:23:34.118Z,1018.93
2019-02-20T13:24:43.963Z,1018.93
2019-02-20T13:25:53.743Z,1018.92
2019-02-20T13:27:07.536Z,1018.9
2019-02-20T13:28:25.605Z,1018.89
2019-02-20T13:29:35.347Z,1018.94
2019-02-20T13:30:44.837Z,1018.93
2019-02-20T13:31:54.527Z,1018.96
2019-02-20T13:33:03.970Z,1018.9
2019-02-20T13:34:13.420Z,1018.89
2019-02-20T13:35:22.881Z,1018.9
2019-02-20T13:36:32.362Z,1018.92
2019-02-20T13:37:42.073Z,1018.9
2019-02-20T13:38:51.536Z,1018.95
2019-02-20T13:40:00.831Z,1018.91
2019-02-20T13:41:10.311Z,1018.9
2019-02-20T13:42:20.302Z,1018.91
2019-02-20T13:43:29.613Z,1018.9
2019-02-20T13:44:39.373Z,1018.93
2019-02-20T13:45:49.471Z,1018.97
2019-02-20T13:46:59.245Z,1018.96
2019-02-20T13:48:10.033Z,1018.97
2019-02-20T13:49:19.328Z,1018.97
2019-02-20T13:50:28.320Z,1019.02
2019-02-20T13:51:38.082Z,1018.98
2019-02-20T13:52:52.181Z,1018.96
2019-02-20T13:54:01.848Z,1018.93
2019-02-20T13:55:11.890Z,1018.93
2019-02-20T13:56:20.922Z,1018.98
2019-02-20T13:57:30.162Z,1018.95
2019-02-20T13:58:39.235Z,1018.93
2019-02-20T13:59:49.250Z,1018.97
2019-02-20T14:00:58.972Z,1019.02
2019-02-20T14:02:08.756Z,1019.01
2019-02-20T14:03:18.239Z,1019.03
2019-02-20T14:04:27.985Z,1019
2019-02-20T14:05:37.850Z,1019.03
2019-02-20T14:06:47.649Z,1019.01
2019-02-20T14:07:57.711Z,1019